Sunday, April 22, 2018, 12:49 AM GMT
Back to Local

CYQI, Yarmouth, N. S.

Location: , , Canada Lat: 43.833
Local Time: 12:49 AM GMT ( 0:49 GMT) Lon: -66.083
Time Zone: GMT Elev: 141 ft

Show me the last for .
Show Coded

Time T Td Feel RH Dir Speed Gust Alt SLP Vis Weather Sky Remarks
2018-04-22 00:00 39 36 30 86 280° 12 20 30.15 30.16 15 FEW075 FEW250 None
2018-04-21 23:00 41 36 32 80 270° 12 18 30.13 30.14 15 FEW030 None
2018-04-21 22:00 43 36 35 75 280° 17 - 30.11 30.12 15 FEW025 None
2018-04-21 21:00 45 36 36 70 280° 15 24 30.12 30.13 15 FEW025 None
2018-04-21 20:00 45 36 36 70 280° 18 24 30.12 30.13 15 FEW025 None
2018-04-21 19:00 45 36 37 70 270° 18 - 30.12 30.13 15 FEW020 None
2018-04-21 18:00 45 36 36 70 280° 16 22 30.13 30.14 15 FEW020 None
2018-04-21 17:00 43 34 34 70 290° 14 22 30.13 30.14 15 FEW025 None
2018-04-21 16:00 43 34 35 70 300° 16 - 30.12 30.13 15 FEW025 None
2018-04-21 15:00 45 36 37 70 300° 14 20 30.13 30.14 15 FEW020 SCT100 None
2018-04-21 14:00 43 36 36 75 320° 13 - 30.14 30.14 15 FEW020 FEW100 None
2018-04-21 13:00 43 32 36 65 330° 14 - 30.13 30.14 15 FEW021 SCT100 None
2018-04-21 12:00 41 32 33 70 340° 14 - 30.13 30.14 15 FEW030 SCT095 None
2018-04-21 11:00 39 34 30 80 340° 8 17 30.11 30.12 15 FEW050 SCT093 BKN096 None
2018-04-21 10:00 37 32 31 80 340° 9 - 30.10 30.11 15 FEW057 BKN091 None
2018-04-21 09:00 37 34 31 86 320° 9 - 30.08 30.09 15 FEW052 SCT092 BKN210 None
2018-04-21 08:00 39 36 33 86 310° 9 - 30.07 30.08 15 BKN047 BKN095 None
2018-04-21 07:00 39 37 33 93 300° 9 - 30.07 30.08 15 BKN042 BKN085 None
2018-04-21 06:00 36 36 30 100 250° 7 - 30.06 30.07 15 SCT044 BKN085 None
2018-04-21 05:00 37 36 33 93 260° 6 - 30.06 30.07 15 FEW045 SCT075 None
2018-04-21 04:00 37 36 32 93 290° 7 - 30.07 30.08 15 BKN046 BKN092 None
2018-04-21 03:00 36 34 33 93 290° 3 - 30.06 30.07 15 CLR None
2018-04-21 02:00 36 34 30 93 310° 7 - 30.05 30.06 15 CLR None
2018-04-21 01:00 36 34 30 93 300° 7 - 30.04 30.05 15 FEW074 None

Support USWX by starting your Amazon purchase here.